sensor_id;sensor_type;location;lat;lon;timestamp;P1;durP1;ratioP1;P2;durP2;ratioP2
4738;SDS011;2383;48.632;10.156;2022-08-27T00:01:39;8.52;;;6.88;;
4738;SDS011;2383;48.632;10.156;2022-08-27T00:05:42;9.60;;;6.45;;
4738;SDS011;2383;48.632;10.156;2022-08-27T00:09:44;10.63;;;7.32;;
4738;SDS011;2383;48.632;10.156;2022-08-27T00:13:45;9.00;;;6.38;;
4738;SDS011;2383;48.632;10.156;2022-08-27T00:17:48;8.98;;;6.20;;
4738;SDS011;2383;48.632;10.156;2022-08-27T00:21:50;7.40;;;6.50;;
4738;SDS011;2383;48.632;10.156;2022-08-27T00:25:51;10.43;;;6.05;;
4738;SDS011;2383;48.632;10.156;2022-08-27T00:29:53;8.25;;;6.47;;
4738;SDS011;2383;48.632;10.156;2022-08-27T00:33:55;8.50;;;6.18;;
4738;SDS011;2383;48.632;10.156;2022-08-27T00:37:57;13.20;;;7.07;;
4738;SDS011;2383;48.632;10.156;2022-08-27T00:42:00;8.43;;;6.68;;
4738;SDS011;2383;48.632;10.156;2022-08-27T00:46:04;7.63;;;6.35;;
4738;SDS011;2383;48.632;10.156;2022-08-27T00:50:16;8.00;;;5.82;;
4738;SDS011;2383;48.632;10.156;2022-08-27T00:54:21;8.55;;;6.75;;
4738;SDS011;2383;48.632;10.156;2022-08-27T00:58:27;8.27;;;6.53;;
4738;SDS011;2383;48.632;10.156;2022-08-27T01:02:31;8.43;;;6.07;;
4738;SDS011;2383;48.632;10.156;2022-08-27T01:06:33;7.57;;;6.22;;
4738;SDS011;2383;48.632;10.156;2022-08-27T01:10:37;11.60;;;7.70;;
4738;SDS011;2383;48.632;10.156;2022-08-27T01:14:40;10.57;;;7.40;;
4738;SDS011;2383;48.632;10.156;2022-08-27T01:18:44;10.52;;;6.85;;
4738;SDS011;2383;48.632;10.156;2022-08-27T01:27:14;9.43;;;7.03;;
4738;SDS011;2383;48.632;10.156;2022-08-27T01:31:18;8.50;;;7.20;;
4738;SDS011;2383;48.632;10.156;2022-08-27T01:35:21;9.20;;;7.07;;
4738;SDS011;2383;48.632;10.156;2022-08-27T01:39:24;9.32;;;7.28;;
4738;SDS011;2383;48.632;10.156;2022-08-27T01:43:26;10.90;;;7.53;;
4738;SDS011;2383;48.632;10.156;2022-08-27T01:47:29;12.13;;;8.70;;
4738;SDS011;2383;48.632;10.156;2022-08-27T01:51:32;11.70;;;7.93;;
4738;SDS011;2383;48.632;10.156;2022-08-27T01:55:34;13.57;;;8.50;;
4738;SDS011;2383;48.632;10.156;2022-08-27T01:59:37;10.45;;;7.88;;
4738;SDS011;2383;48.632;10.156;2022-08-27T02:03:40;10.05;;;7.25;;
4738;SDS011;2383;48.632;10.156;2022-08-27T02:07:43;9.23;;;7.35;;
4738;SDS011;2383;48.632;10.156;2022-08-27T02:11:45;9.00;;;7.20;;
4738;SDS011;2383;48.632;10.156;2022-08-27T02:15:47;9.20;;;7.10;;
4738;SDS011;2383;48.632;10.156;2022-08-27T02:19:49;10.50;;;7.43;;
4738;SDS011;2383;48.632;10.156;2022-08-27T02:23:50;12.27;;;8.52;;
4738;SDS011;2383;48.632;10.156;2022-08-27T02:27:53;10.93;;;8.23;;
4738;SDS011;2383;48.632;10.156;2022-08-27T02:31:57;13.52;;;8.32;;
4738;SDS011;2383;48.632;10.156;2022-08-27T02:35:58;15.00;;;9.10;;
4738;SDS011;2383;48.632;10.156;2022-08-27T02:40:00;14.35;;;9.43;;
4738;SDS011;2383;48.632;10.156;2022-08-27T02:44:03;12.85;;;9.75;;
4738;SDS011;2383;48.632;10.156;2022-08-27T02:48:10;13.70;;;9.20;;
4738;SDS011;2383;48.632;10.156;2022-08-27T02:52:13;16.85;;;11.15;;
4738;SDS011;2383;48.632;10.156;2022-08-27T02:56:15;15.07;;;11.93;;
4738;SDS011;2383;48.632;10.156;2022-08-27T03:00:22;19.05;;;12.60;;
4738;SDS011;2383;48.632;10.156;2022-08-27T03:04:25;18.33;;;13.10;;
4738;SDS011;2383;48.632;10.156;2022-08-27T03:08:28;20.63;;;12.80;;
4738;SDS011;2383;48.632;10.156;2022-08-27T03:12:50;17.80;;;14.40;;
4738;SDS011;2383;48.632;10.156;2022-08-27T03:16:52;19.58;;;14.57;;
4738;SDS011;2383;48.632;10.156;2022-08-27T03:20:55;19.55;;;15.45;;
4738;SDS011;2383;48.632;10.156;2022-08-27T03:24:56;21.10;;;15.30;;
4738;SDS011;2383;48.632;10.156;2022-08-27T03:28:58;20.73;;;16.50;;
4738;SDS011;2383;48.632;10.156;2022-08-27T03:33:00;21.30;;;16.05;;
4738;SDS011;2383;48.632;10.156;2022-08-27T03:37:02;23.98;;;16.80;;
4738;SDS011;2383;48.632;10.156;2022-08-27T03:41:04;22.67;;;16.70;;
4738;SDS011;2383;48.632;10.156;2022-08-27T03:45:07;27.50;;;18.65;;
4738;SDS011;2383;48.632;10.156;2022-08-27T03:49:09;29.35;;;18.77;;
4738;SDS011;2383;48.632;10.156;2022-08-27T03:53:14;24.23;;;17.73;;
4738;SDS011;2383;48.632;10.156;2022-08-27T03:57:17;21.75;;;16.48;;
4738;SDS011;2383;48.632;10.156;2022-08-27T04:01:18;24.83;;;18.25;;
4738;SDS011;2383;48.632;10.156;2022-08-27T04:05:20;26.33;;;18.42;;
4738;SDS011;2383;48.632;10.156;2022-08-27T04:09:23;24.65;;;18.73;;
4738;SDS011;2383;48.632;10.156;2022-08-27T04:13:24;27.50;;;18.33;;
4738;SDS011;2383;48.632;10.156;2022-08-27T04:17:27;20.70;;;16.40;;
4738;SDS011;2383;48.632;10.156;2022-08-27T04:21:29;25.92;;;18.70;;
4738;SDS011;2383;48.632;10.156;2022-08-27T04:25:33;26.02;;;18.45;;
4738;SDS011;2383;48.632;10.156;2022-08-27T04:29:34;30.98;;;20.33;;
4738;SDS011;2383;48.632;10.156;2022-08-27T04:33:39;27.25;;;20.08;;
4738;SDS011;2383;48.632;10.156;2022-08-27T04:37:41;28.70;;;21.05;;
4738;SDS011;2383;48.632;10.156;2022-08-27T04:41:43;37.00;;;24.90;;
4738;SDS011;2383;48.632;10.156;2022-08-27T04:45:45;34.58;;;23.95;;
4738;SDS011;2383;48.632;10.156;2022-08-27T04:49:48;39.78;;;26.05;;
4738;SDS011;2383;48.632;10.156;2022-08-27T04:53:50;35.45;;;23.42;;
4738;SDS011;2383;48.632;10.156;2022-08-27T04:57:53;32.22;;;21.20;;
4738;SDS011;2383;48.632;10.156;2022-08-27T05:01:54;28.83;;;19.75;;
4738;SDS011;2383;48.632;10.156;2022-08-27T05:06:01;34.08;;;21.27;;
4738;SDS011;2383;48.632;10.156;2022-08-27T05:10:04;33.70;;;22.33;;
4738;SDS011;2383;48.632;10.156;2022-08-27T05:14:07;32.78;;;22.77;;
4738;SDS011;2383;48.632;10.156;2022-08-27T05:18:12;32.85;;;23.20;;
4738;SDS011;2383;48.632;10.156;2022-08-27T05:22:14;31.48;;;21.80;;
4738;SDS011;2383;48.632;10.156;2022-08-27T05:26:16;34.30;;;23.58;;
4738;SDS011;2383;48.632;10.156;2022-08-27T05:30:18;37.63;;;24.13;;
4738;SDS011;2383;48.632;10.156;2022-08-27T05:34:20;30.52;;;22.27;;
4738;SDS011;2383;48.632;10.156;2022-08-27T05:38:28;29.80;;;23.00;;
4738;SDS011;2383;48.632;10.156;2022-08-27T05:42:31;30.77;;;22.48;;
4738;SDS011;2383;48.632;10.156;2022-08-27T05:46:33;31.88;;;22.52;;
4738;SDS011;2383;48.632;10.156;2022-08-27T05:50:38;30.17;;;21.48;;
4738;SDS011;2383;48.632;10.156;2022-08-27T05:54:41;31.15;;;22.65;;
4738;SDS011;2383;48.632;10.156;2022-08-27T05:58:43;31.30;;;21.83;;
4738;SDS011;2383;48.632;10.156;2022-08-27T06:03:04;36.85;;;24.40;;
4738;SDS011;2383;48.632;10.156;2022-08-27T06:07:09;35.75;;;24.30;;
4738;SDS011;2383;48.632;10.156;2022-08-27T06:11:11;30.40;;;23.58;;
4738;SDS011;2383;48.632;10.156;2022-08-27T06:15:13;31.38;;;24.35;;
4738;SDS011;2383;48.632;10.156;2022-08-27T06:19:14;31.63;;;23.70;;
4738;SDS011;2383;48.632;10.156;2022-08-27T06:23:16;32.47;;;25.05;;
4738;SDS011;2383;48.632;10.156;2022-08-27T06:27:28;36.88;;;28.05;;
4738;SDS011;2383;48.632;10.156;2022-08-27T06:31:30;34.78;;;25.45;;
4738;SDS011;2383;48.632;10.156;2022-08-27T06:35:35;33.92;;;25.85;;
4738;SDS011;2383;48.632;10.156;2022-08-27T06:39:37;38.28;;;28.27;;
4738;SDS011;2383;48.632;10.156;2022-08-27T06:43:41;45.72;;;28.15;;
4738;SDS011;2383;48.632;10.156;2022-08-27T06:47:43;42.30;;;29.23;;
4738;SDS011;2383;48.632;10.156;2022-08-27T06:51:46;37.53;;;27.33;;
4738;SDS011;2383;48.632;10.156;2022-08-27T06:55:48;34.45;;;25.42;;
4738;SDS011;2383;48.632;10.156;2022-08-27T06:59:50;41.15;;;27.17;;
4738;SDS011;2383;48.632;10.156;2022-08-27T07:03:55;40.78;;;27.83;;
4738;SDS011;2383;48.632;10.156;2022-08-27T07:07:59;33.70;;;24.98;;
4738;SDS011;2383;48.632;10.156;2022-08-27T07:12:02;31.25;;;21.77;;
4738;SDS011;2383;48.632;10.156;2022-08-27T07:16:05;34.38;;;23.35;;
4738;SDS011;2383;48.632;10.156;2022-08-27T07:20:13;32.13;;;22.33;;
4738;SDS011;2383;48.632;10.156;2022-08-27T07:24:15;31.45;;;23.15;;
4738;SDS011;2383;48.632;10.156;2022-08-27T07:28:19;36.67;;;22.23;;
4738;SDS011;2383;48.632;10.156;2022-08-27T07:32:20;31.55;;;21.17;;
4738;SDS011;2383;48.632;10.156;2022-08-27T07:36:31;45.15;;;22.27;;
4738;SDS011;2383;48.632;10.156;2022-08-27T07:40:34;24.92;;;18.70;;
4738;SDS011;2383;48.632;10.156;2022-08-27T07:44:36;25.10;;;18.38;;
4738;SDS011;2383;48.632;10.156;2022-08-27T07:48:38;20.60;;;16.17;;
4738;SDS011;2383;48.632;10.156;2022-08-27T07:52:39;23.33;;;16.50;;
4738;SDS011;2383;48.632;10.156;2022-08-27T07:56:43;23.85;;;17.58;;
4738;SDS011;2383;48.632;10.156;2022-08-27T08:00:56;21.60;;;17.33;;
4738;SDS011;2383;48.632;10.156;2022-08-27T08:04:58;24.35;;;16.67;;
4738;SDS011;2383;48.632;10.156;2022-08-27T08:09:00;20.13;;;14.80;;
4738;SDS011;2383;48.632;10.156;2022-08-27T08:13:02;18.70;;;15.18;;
4738;SDS011;2383;48.632;10.156;2022-08-27T08:17:06;26.45;;;16.48;;
4738;SDS011;2383;48.632;10.156;2022-08-27T08:21:11;21.00;;;15.27;;
4738;SDS011;2383;48.632;10.156;2022-08-27T08:25:14;19.42;;;14.52;;
4738;SDS011;2383;48.632;10.156;2022-08-27T08:29:16;22.20;;;16.52;;
4738;SDS011;2383;48.632;10.156;2022-08-27T08:33:18;22.13;;;18.05;;
4738;SDS011;2383;48.632;10.156;2022-08-27T08:37:21;25.85;;;19.63;;
4738;SDS011;2383;48.632;10.156;2022-08-27T08:45:37;25.38;;;20.35;;
4738;SDS011;2383;48.632;10.156;2022-08-27T08:53:52;26.92;;;19.95;;
4738;SDS011;2383;48.632;10.156;2022-08-27T08:58:29;35.03;;;20.70;;
4738;SDS011;2383;48.632;10.156;2022-08-27T09:02:34;37.20;;;23.27;;
4738;SDS011;2383;48.632;10.156;2022-08-27T09:10:54;34.50;;;24.75;;
4738;SDS011;2383;48.632;10.156;2022-08-27T09:15:19;23.70;;;19.90;;
4738;SDS011;2383;48.632;10.156;2022-08-27T09:19:25;28.08;;;20.38;;
4738;SDS011;2383;48.632;10.156;2022-08-27T09:23:39;25.48;;;19.13;;
4738;SDS011;2383;48.632;10.156;2022-08-27T09:27:47;24.90;;;19.80;;
4738;SDS011;2383;48.632;10.156;2022-08-27T09:36:08;28.02;;;21.13;;
4738;SDS011;2383;48.632;10.156;2022-08-27T09:40:25;27.30;;;21.95;;
4738;SDS011;2383;48.632;10.156;2022-08-27T09:44:28;25.05;;;19.13;;
4738;SDS011;2383;48.632;10.156;2022-08-27T09:48:34;29.77;;;19.27;;
4738;SDS011;2383;48.632;10.156;2022-08-27T09:52:48;31.13;;;20.48;;
4738;SDS011;2383;48.632;10.156;2022-08-27T09:56:51;26.88;;;19.35;;
4738;SDS011;2383;48.632;10.156;2022-08-27T10:01:47;34.97;;;21.65;;
4738;SDS011;2383;48.632;10.156;2022-08-27T10:05:31;29.48;;;22.85;;
4738;SDS011;2383;48.632;10.156;2022-08-27T10:09:53;27.98;;;22.08;;
4738;SDS011;2383;48.632;10.156;2022-08-27T10:14:13;30.10;;;22.08;;
4738;SDS011;2383;48.632;10.156;2022-08-27T10:44:25;13.43;;;4.00;;
4738;SDS011;2383;48.632;10.156;2022-08-27T10:53:19;4.72;;;4.10;;
4738;SDS011;2383;48.632;10.156;2022-08-27T11:06:38;6.82;;;4.60;;
4738;SDS011;2383;48.632;10.156;2022-08-27T11:10:48;6.72;;;5.55;;
4738;SDS011;2383;48.632;10.156;2022-08-27T11:14:57;6.22;;;5.63;;
4738;SDS011;2383;48.632;10.156;2022-08-27T11:19:11;9.18;;;6.65;;
4738;SDS011;2383;48.632;10.156;2022-08-27T11:23:29;5.63;;;5.13;;
4738;SDS011;2383;48.632;10.156;2022-08-27T11:27:50;9.77;;;6.53;;
4738;SDS011;2383;48.632;10.156;2022-08-27T11:32:02;6.90;;;5.85;;
4738;SDS011;2383;48.632;10.156;2022-08-27T11:36:31;9.45;;;5.95;;
4738;SDS011;2383;48.632;10.156;2022-08-27T11:53:58;10.45;;;8.50;;
4738;SDS011;2383;48.632;10.156;2022-08-27T11:58:08;20.80;;;17.00;;
4738;SDS011;2383;48.632;10.156;2022-08-27T12:02:25;9.77;;;8.75;;
4738;SDS011;2383;48.632;10.156;2022-08-27T12:06:39;24.73;;;18.75;;
4738;SDS011;2383;48.632;10.156;2022-08-27T12:15:20;13.55;;;10.85;;
4738;SDS011;2383;48.632;10.156;2022-08-27T12:19:41;7.15;;;6.20;;
4738;SDS011;2383;48.632;10.156;2022-08-27T12:24:04;7.80;;;6.55;;
4738;SDS011;2383;48.632;10.156;2022-08-27T12:28:25;5.82;;;5.22;;
4738;SDS011;2383;48.632;10.156;2022-08-27T12:32:28;6.97;;;5.28;;
4738;SDS011;2383;48.632;10.156;2022-08-27T12:36:36;5.90;;;4.78;;
4738;SDS011;2383;48.632;10.156;2022-08-27T12:40:49;5.63;;;5.03;;
4738;SDS011;2383;48.632;10.156;2022-08-27T12:44:56;5.60;;;5.00;;
4738;SDS011;2383;48.632;10.156;2022-08-27T12:49:00;4.68;;;4.28;;
4738;SDS011;2383;48.632;10.156;2022-08-27T12:53:39;4.53;;;4.13;;
4738;SDS011;2383;48.632;10.156;2022-08-27T13:02:03;5.38;;;4.82;;
4738;SDS011;2383;48.632;10.156;2022-08-27T13:06:32;5.50;;;4.82;;
4738;SDS011;2383;48.632;10.156;2022-08-27T13:10:35;5.97;;;4.72;;
4738;SDS011;2383;48.632;10.156;2022-08-27T13:14:38;6.30;;;4.45;;
4738;SDS011;2383;48.632;10.156;2022-08-27T13:18:41;4.65;;;4.25;;
4738;SDS011;2383;48.632;10.156;2022-08-27T13:22:48;5.38;;;4.78;;
4738;SDS011;2383;48.632;10.156;2022-08-27T13:26:51;5.55;;;4.55;;
4738;SDS011;2383;48.632;10.156;2022-08-27T13:30:57;5.80;;;5.10;;
4738;SDS011;2383;48.632;10.156;2022-08-27T13:35:00;6.28;;;5.68;;
4738;SDS011;2383;48.632;10.156;2022-08-27T13:39:03;6.05;;;5.32;;
4738;SDS011;2383;48.632;10.156;2022-08-27T13:43:07;4.80;;;4.38;;
4738;SDS011;2383;48.632;10.156;2022-08-27T13:47:16;5.53;;;5.00;;
4738;SDS011;2383;48.632;10.156;2022-08-27T13:51:30;5.50;;;5.00;;
4738;SDS011;2383;48.632;10.156;2022-08-27T13:55:34;5.05;;;4.55;;
4738;SDS011;2383;48.632;10.156;2022-08-27T13:59:39;5.60;;;5.05;;
4738;SDS011;2383;48.632;10.156;2022-08-27T14:03:47;7.25;;;5.43;;
4738;SDS011;2383;48.632;10.156;2022-08-27T14:07:57;5.68;;;5.07;;
4738;SDS011;2383;48.632;10.156;2022-08-27T14:12:02;5.50;;;5.00;;
4738;SDS011;2383;48.632;10.156;2022-08-27T14:20:27;5.60;;;5.10;;
4738;SDS011;2383;48.632;10.156;2022-08-27T14:24:29;5.38;;;4.55;;
4738;SDS011;2383;48.632;10.156;2022-08-27T14:28:31;6.95;;;5.78;;
4738;SDS011;2383;48.632;10.156;2022-08-27T14:32:33;5.38;;;4.88;;
4738;SDS011;2383;48.632;10.156;2022-08-27T14:36:36;7.22;;;5.03;;
4738;SDS011;2383;48.632;10.156;2022-08-27T14:40:43;5.63;;;5.03;;
4738;SDS011;2383;48.632;10.156;2022-08-27T14:44:49;5.20;;;4.55;;
4738;SDS011;2383;48.632;10.156;2022-08-27T14:48:51;5.22;;;4.68;;
4738;SDS011;2383;48.632;10.156;2022-08-27T14:52:56;5.32;;;4.82;;
4738;SDS011;2383;48.632;10.156;2022-08-27T14:56:58;5.57;;;4.97;;
4738;SDS011;2383;48.632;10.156;2022-08-27T15:01:00;5.53;;;4.72;;
4738;SDS011;2383;48.632;10.156;2022-08-27T15:05:03;6.05;;;4.95;;
4738;SDS011;2383;48.632;10.156;2022-08-27T15:09:12;6.03;;;5.20;;
4738;SDS011;2383;48.632;10.156;2022-08-27T15:13:15;4.90;;;4.50;;
4738;SDS011;2383;48.632;10.156;2022-08-27T15:17:17;6.38;;;5.47;;
4738;SDS011;2383;48.632;10.156;2022-08-27T15:21:36;7.20;;;5.07;;
4738;SDS011;2383;48.632;10.156;2022-08-27T15:25:40;5.95;;;5.35;;
4738;SDS011;2383;48.632;10.156;2022-08-27T15:29:44;5.85;;;5.28;;
4738;SDS011;2383;48.632;10.156;2022-08-27T15:33:47;6.15;;;5.65;;
4738;SDS011;2383;48.632;10.156;2022-08-27T15:37:49;6.88;;;6.18;;
4738;SDS011;2383;48.632;10.156;2022-08-27T15:41:51;7.00;;;6.25;;
4738;SDS011;2383;48.632;10.156;2022-08-27T15:46:08;9.30;;;7.03;;
4738;SDS011;2383;48.632;10.156;2022-08-27T15:50:10;8.50;;;6.85;;
4738;SDS011;2383;48.632;10.156;2022-08-27T15:54:12;7.82;;;7.05;;
4738;SDS011;2383;48.632;10.156;2022-08-27T15:58:14;9.10;;;7.00;;
4738;SDS011;2383;48.632;10.156;2022-08-27T16:02:17;7.32;;;6.63;;
4738;SDS011;2383;48.632;10.156;2022-08-27T16:06:22;7.95;;;7.07;;
4738;SDS011;2383;48.632;10.156;2022-08-27T16:10:24;7.55;;;6.85;;
4738;SDS011;2383;48.632;10.156;2022-08-27T16:14:26;9.00;;;7.78;;
4738;SDS011;2383;48.632;10.156;2022-08-27T16:18:30;10.68;;;8.45;;
4738;SDS011;2383;48.632;10.156;2022-08-27T16:22:33;10.38;;;8.55;;
4738;SDS011;2383;48.632;10.156;2022-08-27T16:26:35;9.48;;;8.27;;
4738;SDS011;2383;48.632;10.156;2022-08-27T16:30:38;11.80;;;9.60;;
4738;SDS011;2383;48.632;10.156;2022-08-27T16:34:40;13.65;;;10.32;;
4738;SDS011;2383;48.632;10.156;2022-08-27T16:38:43;13.55;;;11.43;;
4738;SDS011;2383;48.632;10.156;2022-08-27T16:42:45;23.67;;;15.88;;
4738;SDS011;2383;48.632;10.156;2022-08-27T16:46:50;13.75;;;11.55;;
4738;SDS011;2383;48.632;10.156;2022-08-27T16:50:52;10.98;;;9.75;;
4738;SDS011;2383;48.632;10.156;2022-08-27T16:54:54;12.88;;;9.55;;
4738;SDS011;2383;48.632;10.156;2022-08-27T16:58:56;12.23;;;10.98;;
4738;SDS011;2383;48.632;10.156;2022-08-27T17:02:58;10.98;;;9.82;;
4738;SDS011;2383;48.632;10.156;2022-08-27T17:07:00;14.10;;;11.25;;
4738;SDS011;2383;48.632;10.156;2022-08-27T17:11:03;13.30;;;11.02;;
4738;SDS011;2383;48.632;10.156;2022-08-27T17:15:06;13.85;;;11.23;;
4738;SDS011;2383;48.632;10.156;2022-08-27T17:19:10;14.63;;;11.38;;
4738;SDS011;2383;48.632;10.156;2022-08-27T17:23:22;13.65;;;10.82;;
4738;SDS011;2383;48.632;10.156;2022-08-27T17:27:31;16.85;;;11.65;;
4738;SDS011;2383;48.632;10.156;2022-08-27T17:31:34;12.73;;;11.00;;
4738;SDS011;2383;48.632;10.156;2022-08-27T17:35:38;15.35;;;11.57;;
4738;SDS011;2383;48.632;10.156;2022-08-27T17:39:40;14.25;;;12.07;;
4738;SDS011;2383;48.632;10.156;2022-08-27T17:43:42;16.85;;;13.73;;
4738;SDS011;2383;48.632;10.156;2022-08-27T17:47:44;13.07;;;11.75;;
4738;SDS011;2383;48.632;10.156;2022-08-27T17:51:46;14.43;;;12.93;;
4738;SDS011;2383;48.632;10.156;2022-08-27T17:55:49;12.43;;;10.90;;
4738;SDS011;2383;48.632;10.156;2022-08-27T17:59:51;13.88;;;11.75;;
4738;SDS011;2383;48.632;10.156;2022-08-27T18:03:55;13.02;;;11.65;;
4738;SDS011;2383;48.632;10.156;2022-08-27T18:07:57;12.63;;;11.23;;
4738;SDS011;2383;48.632;10.156;2022-08-27T18:12:00;11.98;;;10.77;;
4738;SDS011;2383;48.632;10.156;2022-08-27T18:16:03;15.10;;;12.68;;
4738;SDS011;2383;48.632;10.156;2022-08-27T18:20:06;14.30;;;11.73;;
4738;SDS011;2383;48.632;10.156;2022-08-27T18:24:09;14.65;;;12.45;;
4738;SDS011;2383;48.632;10.156;2022-08-27T18:28:11;14.48;;;12.57;;
4738;SDS011;2383;48.632;10.156;2022-08-27T18:32:17;14.63;;;13.13;;
4738;SDS011;2383;48.632;10.156;2022-08-27T18:36:19;18.58;;;13.23;;
4738;SDS011;2383;48.632;10.156;2022-08-27T18:40:25;17.83;;;14.52;;
4738;SDS011;2383;48.632;10.156;2022-08-27T18:44:29;16.85;;;13.82;;
4738;SDS011;2383;48.632;10.156;2022-08-27T18:48:35;16.58;;;13.45;;
4738;SDS011;2383;48.632;10.156;2022-08-27T18:52:37;16.55;;;14.35;;
4738;SDS011;2383;48.632;10.156;2022-08-27T18:56:39;15.23;;;13.18;;
4738;SDS011;2383;48.632;10.156;2022-08-27T19:00:42;15.57;;;13.27;;
4738;SDS011;2383;48.632;10.156;2022-08-27T19:04:46;12.25;;;9.77;;
4738;SDS011;2383;48.632;10.156;2022-08-27T19:08:48;12.70;;;9.45;;
4738;SDS011;2383;48.632;10.156;2022-08-27T19:12:52;12.93;;;8.82;;
4738;SDS011;2383;48.632;10.156;2022-08-27T19:16:54;9.85;;;8.45;;
4738;SDS011;2383;48.632;10.156;2022-08-27T19:20:57;10.27;;;9.27;;
4738;SDS011;2383;48.632;10.156;2022-08-27T19:24:59;9.77;;;8.77;;
4738;SDS011;2383;48.632;10.156;2022-08-27T19:29:01;11.32;;;8.57;;
4738;SDS011;2383;48.632;10.156;2022-08-27T19:33:04;10.38;;;8.68;;
4738;SDS011;2383;48.632;10.156;2022-08-27T19:37:06;11.48;;;8.27;;
4738;SDS011;2383;48.632;10.156;2022-08-27T19:41:10;10.52;;;8.02;;
4738;SDS011;2383;48.632;10.156;2022-08-27T19:45:13;8.52;;;7.70;;
4738;SDS011;2383;48.632;10.156;2022-08-27T19:49:14;10.85;;;9.35;;
4738;SDS011;2383;48.632;10.156;2022-08-27T19:53:16;9.32;;;7.38;;
4738;SDS011;2383;48.632;10.156;2022-08-27T19:57:18;9.40;;;8.13;;
4738;SDS011;2383;48.632;10.156;2022-08-27T20:01:20;8.80;;;7.90;;
4738;SDS011;2383;48.632;10.156;2022-08-27T20:05:22;10.48;;;8.20;;
4738;SDS011;2383;48.632;10.156;2022-08-27T20:09:24;8.63;;;7.72;;
4738;SDS011;2383;48.632;10.156;2022-08-27T20:13:26;8.15;;;6.78;;
4738;SDS011;2383;48.632;10.156;2022-08-27T20:17:33;7.90;;;7.03;;
4738;SDS011;2383;48.632;10.156;2022-08-27T20:21:35;8.20;;;7.03;;
4738;SDS011;2383;48.632;10.156;2022-08-27T20:25:37;9.50;;;7.40;;
4738;SDS011;2383;48.632;10.156;2022-08-27T20:29:38;9.00;;;7.88;;
4738;SDS011;2383;48.632;10.156;2022-08-27T20:33:41;7.97;;;7.18;;
4738;SDS011;2383;48.632;10.156;2022-08-27T20:37:44;8.68;;;7.00;;
4738;SDS011;2383;48.632;10.156;2022-08-27T20:41:46;7.95;;;6.82;;
4738;SDS011;2383;48.632;10.156;2022-08-27T20:45:48;7.93;;;7.13;;
4738;SDS011;2383;48.632;10.156;2022-08-27T20:49:51;11.50;;;7.68;;
4738;SDS011;2383;48.632;10.156;2022-08-27T20:53:53;8.20;;;7.38;;
4738;SDS011;2383;48.632;10.156;2022-08-27T20:57:55;10.10;;;6.68;;
4738;SDS011;2383;48.632;10.156;2022-08-27T21:02:19;9.50;;;6.82;;
4738;SDS011;2383;48.632;10.156;2022-08-27T21:06:29;8.57;;;6.55;;
4738;SDS011;2383;48.632;10.156;2022-08-27T21:10:33;7.32;;;6.55;;
4738;SDS011;2383;48.632;10.156;2022-08-27T21:14:35;8.32;;;6.95;;
4738;SDS011;2383;48.632;10.156;2022-08-27T21:18:37;7.95;;;7.10;;
4738;SDS011;2383;48.632;10.156;2022-08-27T21:22:40;9.88;;;7.10;;
4738;SDS011;2383;48.632;10.156;2022-08-27T21:26:43;11.32;;;7.97;;
4738;SDS011;2383;48.632;10.156;2022-08-27T21:30:46;11.95;;;7.68;;
4738;SDS011;2383;48.632;10.156;2022-08-27T21:34:48;9.27;;;7.82;;
4738;SDS011;2383;48.632;10.156;2022-08-27T21:38:49;9.00;;;7.30;;
4738;SDS011;2383;48.632;10.156;2022-08-27T21:42:51;10.15;;;7.68;;
4738;SDS011;2383;48.632;10.156;2022-08-27T21:46:56;8.20;;;7.32;;
4738;SDS011;2383;48.632;10.156;2022-08-27T21:51:00;9.35;;;7.47;;
4738;SDS011;2383;48.632;10.156;2022-08-27T21:55:10;8.65;;;7.75;;
4738;SDS011;2383;48.632;10.156;2022-08-27T21:59:12;9.45;;;7.38;;
4738;SDS011;2383;48.632;10.156;2022-08-27T22:03:17;8.48;;;7.57;;
4738;SDS011;2383;48.632;10.156;2022-08-27T22:07:20;8.55;;;7.22;;
4738;SDS011;2383;48.632;10.156;2022-08-27T22:11:24;7.85;;;6.82;;
4738;SDS011;2383;48.632;10.156;2022-08-27T22:15:30;8.40;;;6.97;;
4738;SDS011;2383;48.632;10.156;2022-08-27T22:19:33;8.38;;;7.30;;
4738;SDS011;2383;48.632;10.156;2022-08-27T22:23:34;8.70;;;7.78;;
4738;SDS011;2383;48.632;10.156;2022-08-27T22:27:36;8.48;;;7.60;;
4738;SDS011;2383;48.632;10.156;2022-08-27T22:31:38;10.45;;;7.80;;
4738;SDS011;2383;48.632;10.156;2022-08-27T22:35:41;12.98;;;7.60;;
4738;SDS011;2383;48.632;10.156;2022-08-27T22:39:42;10.25;;;8.27;;
4738;SDS011;2383;48.632;10.156;2022-08-27T22:43:44;8.77;;;7.88;;
4738;SDS011;2383;48.632;10.156;2022-08-27T22:47:49;9.43;;;8.00;;
4738;SDS011;2383;48.632;10.156;2022-08-27T22:51:51;9.13;;;8.23;;
4738;SDS011;2383;48.632;10.156;2022-08-27T22:55:53;9.00;;;8.10;;
4738;SDS011;2383;48.632;10.156;2022-08-27T22:59:56;10.32;;;7.72;;
4738;SDS011;2383;48.632;10.156;2022-08-27T23:03:59;9.55;;;8.55;;
4738;SDS011;2383;48.632;10.156;2022-08-27T23:08:00;10.43;;;8.32;;
4738;SDS011;2383;48.632;10.156;2022-08-27T23:12:04;10.48;;;8.32;;
4738;SDS011;2383;48.632;10.156;2022-08-27T23:16:07;11.27;;;8.65;;
4738;SDS011;2383;48.632;10.156;2022-08-27T23:20:09;9.07;;;7.85;;
4738;SDS011;2383;48.632;10.156;2022-08-27T23:24:12;9.65;;;8.50;;
4738;SDS011;2383;48.632;10.156;2022-08-27T23:28:14;10.48;;;8.45;;
4738;SDS011;2383;48.632;10.156;2022-08-27T23:32:17;10.40;;;8.30;;
4738;SDS011;2383;48.632;10.156;2022-08-27T23:36:19;12.07;;;8.82;;
4738;SDS011;2383;48.632;10.156;2022-08-27T23:40:21;11.50;;;9.35;;
4738;SDS011;2383;48.632;10.156;2022-08-27T23:44:23;10.73;;;8.85;;
4738;SDS011;2383;48.632;10.156;2022-08-27T23:48:30;12.55;;;9.63;;
4738;SDS011;2383;48.632;10.156;2022-08-27T23:52:32;10.55;;;9.05;;
4738;SDS011;2383;48.632;10.156;2022-08-27T23:56:34;11.50;;;10.05;;
